This demonstration page uses our WeatherBlox Daily Observations layout. Learn more.

38.88101, -77.10428

Hourly Observations for October 13, 2017

Temp ( °F °C ) Dew Point ( °F °C ) Humidity (%) Winds ( mph kmh ) Pressure ( in mb ) Visibility ( mi km ) Precip ( " mm )
12:52 am 00:52 Cloudy 61 16.1 51 10.6 70 70 ENE 14 22 30.33 1027 10 16.0934 0 0
1:52 am 01:52 Cloudy 62 16.7 51 10.6 67 67 NE 12 19 30.34 1027 10 16.0934 0 0
2:52 am 02:52 Cloudy 61 16.1 51 10.6 70 70 NE 9 15 30.33 1027 10 16.0934 0 0
3:52 am 03:52 Cloudy 60 15.6 51 10.6 72 72 NE 10 17 30.33 1027 10 16.0934 0 0
4:52 am 04:52 Cloudy 61 16.1 51 10.6 70 70 ENE 16 26 30.33 1027 10 16.0934 0 0
5:52 am 05:52 Cloudy 62 16.7 52 11.1 70 70 ENE 12 19 30.35 1028 10 16.0934 0 0
6:52 am 06:52 Cloudy 61 16.1 52 11.1 72 72 ENE 12 19 30.35 1028 10 16.0934 0 0
7:52 am 07:52 Cloudy 61 16.1 52 11.1 72 72 E 13 20 30.36 1028 10 16.0934 0 0
8:52 am 08:52 Cloudy 62 16.7 52 11.1 70 70 ENE 10 17 30.37 1028 10 16.0934 0 0
9:52 am 09:52 Cloudy 63 17.2 53 11.7 70 70 ENE 10 17 30.37 1029 10 16.0934 0 0
10:52 am 10:52 Cloudy 63 17.2 53 11.7 70 70 ENE 12 19 30.37 1029 10 16.0934 0 0
11:52 am 11:52 Cloudy 65 18.3 54 12.2 68 68 NE 6 9 30.37 1028 10 16.0934 0 0
12:52 pm 12:52 Cloudy 66 18.9 59 15 78 78 NE 8 13 30.34 1028 10 16.0934 0 0
1:52 pm 13:52 Cloudy 65 18.3 59 15 81 81 ENE 7 11 30.33 1027 10 16.0934 0 0
2:52 pm 14:52 Cloudy 66 18.9 60 15.6 81 81 NE 8 13 30.31 1026 10 16.0934 0 0
3:52 pm 15:52 Cloudy 65 18.3 60 15.6 84 84 NE 6 9 30.31 1026 10 16.0934 0 0
4:52 pm 16:52 Cloudy 65 18.3 60 15.6 84 84 NE 5 7 30.3 1026 10 16.0934 0 0
5:12 pm 17:12 Cloudy with Mist and Fog 64 17.8 61 16.1 90 90 NE 7 11 30.3 1026 5 8.0467 0 0
5:52 pm 17:52 Cloudy with Mist and Fog 64 17.8 61 16.1 90 90 NNE 7 11 30.3 1026 2.5 4.02335 0 0
6:14 pm 18:14 Cloudy with Mist and Fog 63 17.2 62 16.7 97 97 NNE 7 11 30.3 1026 2.5 4.02335 0 0
6:21 pm 18:21 Cloudy with Mist and Fog 63 17.2 62 16.7 97 97 N 5 7 30.3 1026 2.5 4.02335 0 0
6:29 pm 18:29 Cloudy with Mist and Fog 63 17.2 62 16.7 97 97 NNE 7 11 30.3 1026 2.5 4.02335 0 0
6:52 pm 18:52 Cloudy with Mist and Fog 63 17.2 62 16.7 97 97 NNE 7 11 30.3 1026 2 3.21868 0 0
7:12 pm 19:12 Cloudy with Mist and Fog 63 17.2 63 17.2 100 100 N 7 11 30.3 1026 3 4.82802 0 0
7:29 pm 19:29 Cloudy with Mist and Fog 63 17.2 62 16.7 97 97 NNE 9 15 30.3 1026 3 4.82802 0 0
7:38 pm 19:38 Cloudy with Mist and Fog 63 17.2 62 16.7 97 97 NNE 10 17 30.3 1026 3 4.82802 0 0
7:52 pm 19:52 Cloudy with Mist and Fog 63 17.2 62 16.7 97 97 NNE 8 13 30.3 1026 4 6.43736 0 0
8:21 pm 20:21 Cloudy with Mist and Fog 63 17.2 62 16.7 97 97 NNE 9 15 30.3 1026 5 8.0467 0 0
8:34 pm 20:34 Cloudy with Mist and Fog 63 17.2 62 16.7 97 97 NNE 8 13 30.3 1026 4 6.43736 0 0
8:47 pm 20:47 Cloudy 63 17 63 17 100 100 N 8 13 30.3 1026 8 12.87472 0 0
8:52 pm 20:52 Cloudy with Mist and Fog 63 17.2 62 16.7 97 97 NNE 7 11 30.3 1026 5 8.0467 0 0
9:52 pm 21:52 Cloudy with Mist and Fog 63 17.2 62 16.7 97 97 NNE 7 11 30.3 1026 6 9.65604 0 0
10:23 pm 22:23 Cloudy 63 17.2 62 16.7 97 97 NNE 9 15 30.3 1026 7 11.26538 0 0
10:52 pm 22:52 Cloudy 63 17.2 62 16.7 97 97 N 9 15 30.29 1026 10 16.0934 0 0
11:52 pm 23:52 Cloudy 63 17.2 62 16.7 97 97 NNE 8 13 30.29 1026 10 16.0934 0 0

Powered by AerisWeather